Time;durP1;ratioP1;P1;durP2;ratioP2;P2;SDS_P1;SDS_P2;PMS_P1;PMS_P2;Temp;Humidity;BMP_temperature;BMP_pressure;BME280_temperature;BME280_humidity;BME280_pressure;Samples;Min_cycle;Max_cycle;Signal;HPM_P1;HPM_P2
2022/01/10 00:01:41;;;;;;;9.00;6.15;;;;;;;-0.40;100.00;95129.31;5070637;28;24546;-72
2022/01/10 00:04:08;;;;;;;10.88;6.57;;;;;;;-0.43;100.00;95131.94;5071562;28;24468;-71
2022/01/10 00:06:35;;;;;;;9.88;6.15;;;;;;;-0.42;100.00;95130.22;5071296;28;24840;-71
2022/01/10 00:09:01;;;;;;;8.95;6.20;;;;;;;-0.43;100.00;95131.09;5071510;28;24484;-71
2022/01/10 00:11:28;;;;;;;12.07;7.05;;;;;;;-0.39;100.00;95138.59;5071293;28;24419;-71
2022/01/10 00:13:55;;;;;;;7.72;6.60;;;;;;;-0.36;100.00;95133.41;5071401;28;24460;-71
2022/01/10 00:16:22;;;;;;;9.13;6.90;;;;;;;-0.22;100.00;95140.63;5070773;28;24423;-71
2022/01/10 00:18:48;;;;;;;8.57;6.80;;;;;;;-0.07;100.00;95145.25;5071144;28;24422;-71
2022/01/10 00:21:15;;;;;;;7.70;6.30;;;;;;;-0.20;100.00;95148.22;5071128;28;24448;-71
2022/01/10 00:23:42;;;;;;;8.73;6.97;;;;;;;-0.23;100.00;95154.22;5071006;28;24452;-71
2022/01/10 00:26:08;;;;;;;9.18;6.55;;;;;;;-0.16;100.00;95153.16;5070640;28;24781;-71
2022/01/10 00:28:35;;;;;;;7.38;6.38;;;;;;;-0.35;100.00;95155.41;5070865;28;24427;-71
2022/01/10 00:31:03;;;;;;;8.40;7.50;;;;;;;-0.54;100.00;95156.84;5070718;28;24422;-71
2022/01/10 00:33:29;;;;;;;9.07;7.53;;;;;;;-0.70;100.00;95156.47;5071030;28;24442;-71
2022/01/10 00:35:56;;;;;;;11.02;7.43;;;;;;;-0.59;100.00;95151.09;5070532;28;24422;-71
2022/01/10 00:38:22;;;;;;;13.93;8.35;;;;;;;-0.28;100.00;95154.38;5070683;28;24422;-71
2022/01/10 00:40:49;;;;;;;16.08;11.38;;;;;;;-0.13;100.00;95162.41;5070590;28;24417;-71
2022/01/10 00:43:19;;;;;;;17.85;12.48;;;;;;;-0.19;100.00;95158.31;5070821;28;24986;-71
2022/01/10 00:45:46;;;;;;;13.60;10.48;;;;;;;-0.32;100.00;95174.88;5070323;28;24496;-71
2022/01/10 00:48:14;;;;;;;14.93;8.90;;;;;;;-0.49;100.00;95170.25;5070726;28;24422;-71
2022/01/10 00:50:40;;;;;;;12.00;7.72;;;;;;;-0.62;100.00;95172.34;5070495;28;24989;-71
2022/01/10 00:53:07;;;;;;;6.35;5.68;;;;;;;-0.64;100.00;95184.25;5070849;28;24415;-71
2022/01/10 00:55:33;;;;;;;6.93;5.78;;;;;;;-0.67;100.00;95176.72;5070278;28;24410;-71
2022/01/10 00:58:00;;;;;;;5.60;5.00;;;;;;;-0.62;100.00;95184.22;5070302;28;24446;-71
2022/01/10 01:00:26;;;;;;;6.17;5.20;;;;;;;-0.53;100.00;95186.50;5070584;28;24931;-71
2022/01/10 01:02:53;;;;;;;7.88;5.15;;;;;;;-0.47;100.00;95196.50;5070628;28;24446;-71
2022/01/10 01:05:22;;;;;;;7.88;6.00;;;;;;;-0.29;100.00;95192.59;5070348;28;24892;-71
2022/01/10 01:07:49;;;;;;;8.77;6.30;;;;;;;-0.37;100.00;95197.03;5070493;28;24860;-71
2022/01/10 01:10:49;;;;;;;6.68;5.78;;;;;;;-0.40;100.00;95194.63;5070231;28;24419;-71
2022/01/10 01:13:25;;;;;;;8.77;5.85;;;;;;;-0.40;100.00;95202.25;5070081;28;24441;-71
2022/01/10 01:16:09;;;;;;;8.57;5.80;;;;;;;-0.53;100.00;95210.22;5070220;28;24422;-71
2022/01/10 01:19:05;;;;;;;6.88;4.78;;;;;;;-0.54;100.00;95215.34;5070325;28;24427;-71
2022/01/10 01:24:17;;;;;;;6.13;4.05;;;;;;;-0.44;100.00;95224.41;5070215;28;24485;-71
2022/01/10 01:26:46;;;;;;;5.57;4.20;;;;;;;-0.38;100.00;95228.47;5070056;28;24410;-71
2022/01/10 01:29:14;;;;;;;6.68;4.85;;;;;;;-0.39;100.00;95231.88;5069841;28;24418;-71
2022/01/10 01:31:42;;;;;;;12.65;6.68;;;;;;;-0.31;100.00;95227.41;5070261;28;24410;-71
2022/01/10 01:34:09;;;;;;;10.20;7.00;;;;;;;-0.27;100.00;95229.81;5070285;28;24419;-71
2022/01/10 01:36:37;;;;;;;10.38;7.15;;;;;;;-0.24;100.00;95239.09;5069979;28;24868;-71
2022/01/10 01:39:16;;;;;;;9.60;6.97;;;;;;;-0.27;100.00;95234.91;5070016;28;24455;-71
2022/01/10 01:41:43;;;;;;;9.32;7.20;;;;;;;-0.31;100.00;95245.22;5070025;28;24846;-71
2022/01/10 01:44:10;;;;;;;8.55;7.10;;;;;;;-0.32;100.00;95248.66;5069988;28;24448;-71
2022/01/10 01:46:38;;;;;;;9.00;7.23;;;;;;;-0.30;100.00;95246.88;5069872;28;24464;-71
2022/01/10 01:49:06;;;;;;;8.70;7.22;;;;;;;-0.30;100.00;95250.28;5069959;28;24490;-71
2022/01/10 01:51:33;;;;;;;13.55;7.25;;;;;;;-0.33;100.00;95252.91;5070042;28;24472;-71
2022/01/10 01:54:02;;;;;;;7.40;6.63;;;;;;;-0.28;100.00;95248.50;5070108;28;24823;-71
2022/01/10 01:56:28;;;;;;;45.88;6.95;;;;;;;-0.41;100.00;95249.72;5069452;28;24421;-71
2022/01/10 01:58:56;;;;;;;14.25;6.05;;;;;;;-0.42;100.00;95253.16;5069728;28;25009;-71
2022/01/10 02:01:23;;;;;;;10.43;5.82;;;;;;;-0.37;100.00;95258.97;5070092;28;24488;-71
2022/01/10 02:03:51;;;;;;;16.20;6.40;;;;;;;-0.25;100.00;95257.78;5069944;28;24831;-71
2022/01/10 02:06:17;;;;;;;9.85;7.50;;;;;;;-0.20;100.00;95258.47;5069464;28;24442;-71
2022/01/10 02:08:44;;;;;;;9.23;7.45;;;;;;;-0.20;100.00;95265.28;5069682;28;24462;-71
2022/01/10 02:11:15;;;;;;;14.50;6.40;;;;;;;-0.31;100.00;95263.03;5069713;28;24545;-71
2022/01/10 02:13:42;;;;;;;12.53;6.30;;;;;;;-0.39;100.00;95270.06;5069999;28;24495;-71
2022/01/10 02:16:11;;;;;;;6.90;6.05;;;;;;;-0.34;100.00;95274.13;5069693;28;24468;-71
2022/01/10 02:18:38;;;;;;;6.55;5.90;;;;;;;-0.32;100.00;95272.38;5069661;28;24428;-71
2022/01/10 02:21:09;;;;;;;6.68;5.97;;;;;;;-0.27;100.00;95278.16;5069792;28;24433;-71
2022/01/10 02:23:36;;;;;;;6.60;6.00;;;;;;;-0.23;100.00;95283.16;5069734;28;24454;-71
2022/01/10 02:26:03;;;;;;;7.53;5.88;;;;;;;-0.23;100.00;95289.09;5072991;28;24439;-71
2022/01/10 02:28:31;;;;;;;14.65;6.25;;;;;;;-0.26;100.00;95292.56;5073297;28;24418;-71
2022/01/10 02:30:58;;;;;;;9.32;6.43;;;;;;;-0.26;100.00;95290.03;5073307;28;24552;-71
2022/01/10 02:33:27;;;;;;;7.30;6.23;;;;;;;-0.21;100.00;95296.69;5072989;28;24959;-71
2022/01/10 02:36:02;;;;;;;8.40;6.88;;;;;;;-0.07;100.00;95299.69;5072642;28;24833;-71
2022/01/10 02:38:30;;;;;;;14.20;8.38;;;;;;;-0.02;100.00;95308.00;5072680;28;25047;-71
2022/01/10 02:40:58;;;;;;;12.45;8.02;;;;;;;-0.09;100.00;95299.72;5073110;28;24430;-71
2022/01/10 02:43:24;;;;;;;10.75;8.10;;;;;;;-0.06;100.00;95314.06;5073209;28;24422;-71
2022/01/10 02:45:51;;;;;;;15.00;7.75;;;;;;;-0.16;100.00;95313.50;5072615;28;24446;-71
2022/01/10 02:48:17;;;;;;;11.07;7.60;;;;;;;-0.23;100.00;95309.44;5073039;28;24430;-71
2022/01/10 02:50:44;;;;;;;7.82;7.03;;;;;;;-0.21;100.00;95320.44;5072804;28;24427;-71
2022/01/10 02:53:10;;;;;;;9.73;7.55;;;;;;;-0.13;100.00;95320.22;5072856;28;24415;-71
2022/01/10 02:55:38;;;;;;;10.60;8.77;;;;;;;-0.10;100.00;95320.97;5072687;28;24955;-71
2022/01/10 02:58:05;;;;;;;18.40;8.43;;;;;;;-0.17;100.00;95329.66;5072728;28;24560;-71
2022/01/10 03:00:32;;;;;;;10.60;8.55;;;;;;;-0.21;100.00;95327.25;5072577;28;24488;-71
2022/01/10 03:02:59;;;;;;;10.15;8.73;;;;;;;-0.30;100.00;95336.81;5072739;28;24464;-71
2022/01/10 03:05:26;;;;;;;10.68;8.75;;;;;;;-0.32;100.00;95340.25;5072653;28;24454;-71
2022/01/10 03:07:55;;;;;;;12.57;8.55;;;;;;;-0.33;100.00;95341.97;5072466;28;24513;-71
2022/01/10 03:10:22;;;;;;;10.70;8.85;;;;;;;-0.29;100.00;95347.81;5072694;28;24488;-71
2022/01/10 03:12:50;;;;;;;16.10;8.70;;;;;;;-0.35;100.00;95350.50;5072478;28;24526;-71
2022/01/10 03:15:18;;;;;;;9.43;8.23;;;;;;;-0.41;100.00;95359.13;5072628;28;24423;-71
2022/01/10 03:17:44;;;;;;;9.70;8.55;;;;;;;-0.46;100.00;95360.13;5072346;28;24445;-71
2022/01/10 03:20:12;;;;;;;11.65;8.63;;;;;;;-0.41;100.00;95363.38;5072315;28;24426;-71
2022/01/10 03:22:38;;;;;;;12.90;9.50;;;;;;;-0.34;100.00;95360.63;5072357;28;24464;-71
2022/01/10 03:25:06;;;;;;;10.90;9.10;;;;;;;-0.31;100.00;95369.91;5072084;28;24461;-71
2022/01/10 03:27:33;;;;;;;17.05;9.35;;;;;;;-0.39;100.00;95370.13;5072287;28;24435;-71
2022/01/10 03:30:01;;;;;;;8.15;7.28;;;;;;;-0.33;100.00;95377.59;5072074;28;24430;-71
2022/01/10 03:32:27;;;;;;;7.38;6.68;;;;;;;-0.27;100.00;95381.66;5072158;28;24430;-71
2022/01/10 03:34:54;;;;;;;8.00;6.85;;;;;;;-0.21;100.00;95388.31;5071481;28;24768;-71
2022/01/10 03:37:20;;;;;;;19.67;7.70;;;;;;;-0.32;100.00;95381.81;5071152;28;24483;-71
2022/01/10 03:39:47;;;;;;;9.35;7.32;;;;;;;-0.38;100.00;95389.59;5072011;28;24422;-71
2022/01/10 03:42:13;;;;;;;7.88;6.40;;;;;;;-0.36;100.00;95399.75;5071983;28;24426;-71
2022/01/10 03:44:40;;;;;;;7.90;6.82;;;;;;;-0.35;100.00;95396.31;5071844;28;24411;-71
2022/01/10 03:47:09;;;;;;;6.85;6.15;;;;;;;-0.29;100.00;95396.16;5071619;28;24472;-71
2022/01/10 03:49:37;;;;;;;9.02;5.95;;;;;;;-0.26;100.00;95402.00;5071809;28;24796;-71
2022/01/10 03:52:04;;;;;;;7.57;5.60;;;;;;;-0.38;100.00;95404.03;5071845;28;24418;-71
2022/01/10 03:54:30;;;;;;;6.82;5.43;;;;;;;-0.36;100.00;95403.13;5071624;28;24418;-71
2022/01/10 03:56:57;;;;;;;7.63;5.13;;;;;;;-0.34;100.00;95408.16;5071265;28;24994;-71
2022/01/10 03:59:23;;;;;;;5.60;4.90;;;;;;;-0.34;100.00;95413.25;5071402;28;24434;-71
2022/01/10 04:01:51;;;;;;;5.53;4.97;;;;;;;-0.42;100.00;95415.97;5071735;28;24842;-71
2022/01/10 04:04:19;;;;;;;6.20;4.60;;;;;;;-0.44;100.00;95415.19;5071574;28;24437;-71
2022/01/10 04:06:46;;;;;;;5.40;4.30;;;;;;;-0.42;100.00;95428.69;5071006;28;24439;-71
2022/01/10 04:09:12;;;;;;;6.13;4.50;;;;;;;-0.36;100.00;95423.47;5071206;28;24426;-71
2022/01/10 04:11:39;;;;;;;7.20;4.70;;;;;;;-0.31;100.00;95424.16;5071185;28;24450;-71
2022/01/10 04:14:06;;;;;;;5.28;4.13;;;;;;;-0.27;100.00;95427.47;5071111;28;24421;-71
2022/01/10 04:16:32;;;;;;;4.30;3.90;;;;;;;-0.27;100.00;95428.31;5070833;28;24948;-71
2022/01/10 04:19:00;;;;;;;4.90;4.30;;;;;;;-0.18;100.00;95431.50;5084559;22;24543;-76
2022/01/10 04:21:28;;;;;;;6.88;4.18;;;;;;;-0.17;100.00;95433.16;5061127;28;24427;-78
2022/01/10 04:23:54;;;;;;;5.15;4.43;;;;;;;-0.17;100.00;95433.16;5061293;28;24427;-77
2022/01/10 04:26:21;;;;;;;4.95;4.45;;;;;;;-0.14;100.00;95425.47;5063717;28;24454;-77
2022/01/10 04:28:47;;;;;;;5.18;4.20;;;;;;;-0.19;100.00;95443.38;5063579;28;24814;-77
2022/01/10 04:31:14;;;;;;;5.83;4.43;;;;;;;-0.25;100.00;95441.00;5061065;28;24639;-76
2022/01/10 04:33:40;;;;;;;5.45;4.72;;;;;;;-0.27;100.00;95447.84;5060821;28;24430;-77
2022/01/10 04:36:07;;;;;;;6.45;5.03;;;;;;;-0.45;100.00;95445.75;5060557;28;24427;-78
2022/01/10 04:38:35;;;;;;;5.15;4.65;;;;;;;-0.42;100.00;95445.69;5062704;28;24423;-78
2022/01/10 04:41:02;;;;;;;5.18;4.68;;;;;;;-0.38;100.00;95448.09;5061143;28;24426;-77
2022/01/10 04:43:29;;;;;;;5.32;4.60;;;;;;;-0.36;100.00;95453.16;5062470;28;24438;-75
2022/01/10 04:45:55;;;;;;;5.87;5.27;;;;;;;-0.55;100.00;95451.09;5063711;28;24428;-78
2022/01/10 04:48:22;;;;;;;6.22;4.93;;;;;;;-0.60;100.00;95457.97;5064314;28;24435;-78
2022/01/10 04:51:11;;;;;;;6.18;5.32;;;;;;;-0.63;100.00;95463.16;5066364;28;24429;-76
2022/01/10 04:53:40;;;;;;;6.60;5.25;;;;;;;-0.50;100.00;95473.84;5066546;28;24976;-77
2022/01/10 04:56:06;;;;;;;5.73;5.20;;;;;;;-0.36;100.00;95476.91;5054455;28;24459;-76
2022/01/10 04:58:34;;;;;;;6.85;5.15;;;;;;;-0.34;100.00;95474.31;5050472;28;24838;-76
2022/01/10 05:01:02;;;;;;;6.93;5.43;;;;;;;-0.31;100.00;95474.22;5050838;28;24518;-76
2022/01/10 05:03:29;;;;;;;6.80;5.20;;;;;;;-0.29;100.00;95485.22;5050477;28;24502;-76
2022/01/10 05:05:55;;;;;;;6.70;5.40;;;;;;;-0.27;100.00;95491.94;5049984;28;24443;-76
2022/01/10 05:08:22;;;;;;;5.97;4.88;;;;;;;-0.25;100.00;95490.19;5050658;28;24546;-76
2022/01/10 05:10:51;;;;;;;7.38;5.50;;;;;;;-0.14;100.00;95496.72;5050564;28;24423;-77
2022/01/10 05:13:18;;;;;;;5.95;4.82;;;;;;;0.02;100.00;95498.00;5050537;28;24438;-76
2022/01/10 05:15:46;;;;;;;6.85;5.40;;;;;;;-0.07;100.00;95503.34;5050145;28;24507;-77
2022/01/10 05:18:13;;;;;;;11.05;5.18;;;;;;;-0.14;100.00;95504.38;5049995;28;25016;-76
2022/01/10 05:20:40;;;;;;;6.25;5.05;;;;;;;-0.18;100.00;95513.78;5050151;28;24940;-76
2022/01/10 05:23:07;;;;;;;8.10;4.88;;;;;;;-0.15;100.00;95518.81;5050599;28;24426;-76
2022/01/10 05:25:39;;;;;;;5.90;5.30;;;;;;;-0.22;100.00;95518.97;5050143;28;24501;-76
2022/01/10 05:28:09;;;;;;;7.37;5.33;;;;;;;-0.31;100.00;95518.31;5050309;28;24534;-76
2022/01/10 05:30:37;;;;;;;5.53;5.03;;;;;;;-0.26;100.00;95528.38;5050221;28;25034;-77
2022/01/10 05:33:03;;;;;;;6.97;5.63;;;;;;;-0.25;100.00;95525.00;5050213;28;24416;-76
2022/01/10 05:35:30;;;;;;;7.75;6.13;;;;;;;-0.15;100.00;95529.00;5050364;28;24423;-77
2022/01/10 05:37:56;;;;;;;11.20;7.67;;;;;;;-0.18;100.00;95540.94;5050287;28;24431;-76
2022/01/10 05:40:23;;;;;;;11.20;7.05;;;;;;;-0.25;100.00;95543.63;5050365;28;24427;-76
2022/01/10 05:42:49;;;;;;;8.15;5.60;;;;;;;-0.40;100.00;95551.63;5050537;28;24415;-77
2022/01/10 05:45:17;;;;;;;6.88;5.75;;;;;;;-0.41;100.00;95557.56;5050182;28;24411;-76
2022/01/10 05:47:45;;;;;;;7.20;5.70;;;;;;;-0.50;100.00;95565.44;5050613;28;24777;-78
2022/01/10 05:50:18;;;;;;;8.00;5.37;;;;;;;-0.55;100.00;95569.81;5052365;28;24486;-77
2022/01/10 05:52:45;;;;;;;9.38;5.80;;;;;;;-0.59;100.00;95570.75;5051795;28;24573;-77
2022/01/10 05:55:12;;;;;;;8.60;6.32;;;;;;;-0.65;100.00;95575.97;5051780;28;24944;-79
2022/01/10 05:57:39;;;;;;;8.57;6.38;;;;;;;-0.61;100.00;95580.94;5048177;28;24466;-78
2022/01/10 06:00:07;;;;;;;6.72;5.68;;;;;;;-0.51;100.00;95584.97;5061725;28;24442;-77
2022/01/10 06:02:35;;;;;;;7.53;5.70;;;;;;;-0.44;100.00;95588.22;5055340;28;24561;-78
2022/01/10 06:05:08;;;;;;;6.55;5.78;;;;;;;-0.40;100.00;95587.25;5067858;28;24438;-78
2022/01/10 06:07:35;;;;;;;6.43;5.55;;;;;;;-0.34;100.00;95596.44;5065327;28;24538;-77
2022/01/10 06:10:02;;;;;;;6.82;5.45;;;;;;;-0.30;100.00;95605.69;5054793;28;24442;-78
2022/01/10 06:12:28;;;;;;;6.80;5.28;;;;;;;-0.22;100.00;95608.91;5054736;28;24824;-78
2022/01/10 06:14:55;;;;;;;8.50;5.70;;;;;;;-0.26;100.00;95617.47;5046304;28;25015;-78
2022/01/10 06:17:21;;;;;;;9.50;6.68;;;;;;;-0.41;100.00;95616.09;5034044;28;24435;-77
2022/01/10 06:19:49;;;;;;;10.10;7.32;;;;;;;-0.33;100.00;95615.97;5035500;28;24809;-78
2022/01/10 06:22:16;;;;;;;6.40;5.32;;;;;;;-0.18;100.00;95632.59;5035929;28;24460;-76
2022/01/10 06:24:42;;;;;;;8.38;5.40;;;;;;;-0.13;100.00;95629.03;5064944;28;24438;-79
2022/01/10 06:27:09;;;;;;;6.53;5.18;;;;;;;-0.22;100.00;95629.28;5073443;28;24447;-78
2022/01/10 06:29:35;;;;;;;8.57;6.10;;;;;;;-0.43;100.00;95635.66;5053796;28;24860;-78
2022/01/10 06:32:01;;;;;;;8.80;7.80;;;;;;;-0.55;100.00;95646.13;5054231;28;24854;-77
2022/01/10 06:34:28;;;;;;;9.50;8.10;;;;;;;-0.44;100.00;95651.81;5054290;28;24820;-78
2022/01/10 06:36:56;;;;;;;7.85;6.72;;;;;;;-0.32;100.00;95658.34;5053917;28;24561;-78
2022/01/10 06:39:23;;;;;;;5.80;4.95;;;;;;;0.08;100.00;95655.72;5053556;28;24439;-79
2022/01/10 06:41:49;;;;;;;5.32;4.80;;;;;;;0.07;100.00;95663.38;5053876;28;24809;-81
2022/01/10 06:44:15;;;;;;;6.05;4.60;;;;;;;-0.19;100.00;95667.34;5054514;28;24436;-78
2022/01/10 06:46:42;;;;;;;6.13;4.90;;;;;;;-0.36;100.00;95670.28;5053789;28;24529;-79
2022/01/10 06:49:08;;;;;;;7.10;6.00;;;;;;;-0.39;100.00;95677.16;5054177;28;24443;-78
2022/01/10 06:51:35;;;;;;;6.60;5.38;;;;;;;-0.37;100.00;95673.72;5054577;28;25001;-80
2022/01/10 06:54:03;;;;;;;6.22;5.10;;;;;;;-0.34;100.00;95678.72;5053921;28;24957;-81
2022/01/10 06:56:29;;;;;;;9.00;6.55;;;;;;;-0.26;100.00;95684.50;5054967;28;24439;-79
2022/01/10 06:58:56;;;;;;;9.25;6.18;;;;;;;-0.29;100.00;95694.72;5053317;28;24435;-78
2022/01/10 07:01:23;;;;;;;11.77;6.65;;;;;;;-0.20;100.00;95714.03;5035063;28;24415;-76
2022/01/10 07:03:52;;;;;;;7.45;5.63;;;;;;;0.03;100.00;95703.34;5045834;28;24430;-77
2022/01/10 07:06:19;;;;;;;9.13;5.50;;;;;;;0.24;100.00;95707.94;5074056;28;24452;-78
2022/01/10 07:08:45;;;;;;;5.13;4.43;;;;;;;-0.05;100.00;95720.50;5056899;28;24486;-78
2022/01/10 07:11:13;;;;;;;6.67;5.00;;;;;;;-0.15;100.00;95722.44;5054264;28;24434;-79
2022/01/10 07:13:40;;;;;;;6.50;5.72;;;;;;;-0.16;100.00;95737.72;5059428;28;24432;-80
2022/01/10 07:16:06;;;;;;;9.23;6.53;;;;;;;-0.20;100.00;95741.22;5053275;28;24426;-77
2022/01/10 07:18:33;;;;;;;8.45;6.20;;;;;;;-0.22;100.00;95750.56;5052326;28;24438;-76
2022/01/10 07:20:59;;;;;;;6.40;5.30;;;;;;;-0.51;100.00;95750.31;5053415;28;24415;-77
2022/01/10 07:23:26;;;;;;;8.15;5.63;;;;;;;-0.56;100.00;95754.63;5052989;28;24426;-77
2022/01/10 07:25:52;;;;;;;9.23;6.03;;;;;;;-0.62;100.00;95764.94;5073094;28;24784;-78
2022/01/10 07:28:20;;;;;;;9.05;6.40;;;;;;;-0.58;100.00;95771.66;5062323;28;24458;-78
2022/01/10 07:30:49;;;;;;;6.32;5.28;;;;;;;-0.49;100.00;95786.72;5052439;28;24482;-78
2022/01/10 07:33:15;;;;;;;6.93;5.72;;;;;;;-0.57;100.00;95782.66;5052951;28;24427;-78
2022/01/10 07:35:42;;;;;;;6.95;5.47;;;;;;;-0.54;100.00;95786.00;5056391;28;24431;-77
2022/01/10 07:38:08;;;;;;;8.87;7.40;;;;;;;-0.50;100.00;95786.75;5051609;28;24564;-77
2022/01/10 07:40:35;;;;;;;9.93;7.68;;;;;;;-0.38;100.00;95789.06;5052674;28;24840;-78
2022/01/10 07:43:01;;;;;;;10.35;8.52;;;;;;;-0.32;100.00;95798.28;5047122;28;24985;-79
2022/01/10 07:45:29;;;;;;;10.00;8.35;;;;;;;-0.25;100.00;95804.94;5051670;28;24432;-77
2022/01/10 07:47:56;;;;;;;10.35;7.95;;;;;;;-0.27;100.00;95802.41;5053818;28;24455;-79
2022/01/10 07:50:22;;;;;;;9.68;8.27;;;;;;;-0.32;100.00;95804.22;5052620;28;24423;-77
2022/01/10 07:52:49;;;;;;;8.50;7.45;;;;;;;-0.28;100.00;95821.09;5052268;28;24466;-77
2022/01/10 07:55:15;;;;;;;12.82;8.27;;;;;;;-0.18;100.00;95820.94;5051964;28;24439;-79
2022/01/10 07:57:42;;;;;;;9.82;7.57;;;;;;;-0.07;100.00;95829.19;5046929;28;25012;-78
2022/01/10 08:00:09;;;;;;;8.48;7.32;;;;;;;-0.01;100.00;95836.69;5043086;28;24431;-77
2022/01/10 08:02:37;;;;;;;8.98;8.00;;;;;;;0.00;100.00;95840.94;5052656;28;24960;-77
2022/01/10 08:05:05;;;;;;;9.25;7.68;;;;;;;-0.24;100.00;95839.69;5066431;28;24441;-79
2022/01/10 08:07:31;;;;;;;9.07;8.10;;;;;;;-0.35;100.00;95839.91;5072366;28;24527;-78
2022/01/10 08:09:57;;;;;;;9.57;8.40;;;;;;;-0.37;100.00;95841.66;5055230;28;24431;-77
2022/01/10 08:12:24;;;;;;;9.48;7.80;;;;;;;-0.30;100.00;95848.31;5051811;28;24423;-77
2022/01/10 08:14:51;;;;;;;10.70;8.20;;;;;;;-0.36;100.00;95845.88;5053707;28;24507;-77
2022/01/10 08:17:17;;;;;;;8.50;7.60;;;;;;;-0.29;100.00;95849.13;5051990;28;24426;-78
2022/01/10 08:19:45;;;;;;;12.63;7.93;;;;;;;-0.22;100.00;95858.34;5052583;28;24433;-78
2022/01/10 08:22:12;;;;;;;8.75;7.10;;;;;;;-0.17;100.00;95859.06;5051612;28;24430;-78
2022/01/10 08:24:38;;;;;;;8.80;7.40;;;;;;;-0.18;100.00;95869.31;5062217;28;24515;-78
2022/01/10 08:27:05;;;;;;;6.85;6.10;;;;;;;-0.06;100.00;95869.06;5057037;28;24450;-77
2022/01/10 08:29:32;;;;;;;8.00;7.20;;;;;;;-0.07;100.00;95872.47;5037732;28;24431;-76
2022/01/10 08:31:59;;;;;;;8.60;7.38;;;;;;;-0.15;100.00;95876.84;5050344;28;24977;-82
2022/01/10 08:34:25;;;;;;;7.60;6.57;;;;;;;-0.15;100.00;95876.84;5061852;28;24426;-79
2022/01/10 08:36:54;;;;;;;6.38;5.65;;;;;;;-0.18;100.00;95882.88;5061835;28;24433;-78
2022/01/10 08:39:21;;;;;;;6.72;5.25;;;;;;;-0.27;100.00;95886.41;5051328;28;24466;-79
2022/01/10 08:41:47;;;;;;;6.47;4.43;;;;;;;-0.21;100.00;95889.72;5051656;28;24438;-79
2022/01/10 08:44:15;;;;;;;6.35;4.68;;;;;;;-0.09;100.00;95889.47;5048495;28;24442;-80
2022/01/10 08:46:42;;;;;;;6.50;4.93;;;;;;;0.17;100.00;95899.97;5067813;28;24828;-80
2022/01/10 08:49:09;;;;;;;5.50;4.90;;;;;;;0.30;100.00;95907.38;5071507;28;24430;-80
2022/01/10 08:51:36;;;;;;;5.63;5.10;;;;;;;0.41;100.00;95910.56;5071719;28;24441;-81
2022/01/10 08:54:04;;;;;;;6.63;5.60;;;;;;;0.41;100.00;95910.56;5061914;28;24427;-79
2022/01/10 08:56:31;;;;;;;5.57;4.97;;;;;;;0.38;100.00;95911.44;5071397;28;24785;-81
2022/01/10 08:58:58;;;;;;;6.28;4.88;;;;;;;0.44;100.00;95918.13;5055114;28;24469;-80
2022/01/10 09:01:24;;;;;;;6.40;4.85;;;;;;;0.47;100.00;95918.88;5052842;28;24427;-80
2022/01/10 09:03:51;;;;;;;6.10;4.78;;;;;;;0.51;100.00;95929.03;5055663;28;24971;-81
2022/01/10 09:06:17;;;;;;;6.93;4.45;;;;;;;0.59;100.00;95932.25;5048702;28;24432;-81
2022/01/10 09:08:47;;;;;;;6.93;5.30;;;;;;;0.73;100.00;95936.19;5038545;28;24760;-81
2022/01/10 09:11:15;;;;;;;5.90;4.65;;;;;;;0.78;100.00;95945.44;5051794;28;24876;-81
2022/01/10 09:13:41;;;;;;;7.05;4.57;;;;;;;0.67;100.00;95954.16;5046260;28;24983;-80
2022/01/10 09:16:09;;;;;;;7.68;5.38;;;;;;;0.70;100.00;95954.13;5050962;28;24439;-81
2022/01/10 09:18:35;;;;;;;10.13;8.07;;;;;;;0.72;100.00;95956.63;5051163;28;24431;-80
2022/01/10 09:21:02;;;;;;;21.73;15.67;;;;;;;0.70;100.00;95958.34;5052020;28;24837;-79
2022/01/10 09:23:29;;;;;;;20.63;16.70;;;;;;;0.76;100.00;95965.88;5051517;28;25015;-79
2022/01/10 09:25:55;;;;;;;18.30;15.77;;;;;;;0.72;100.00;95965.09;5050983;28;24431;-79
2022/01/10 09:28:23;;;;;;;15.02;13.23;;;;;;;0.76;100.00;95968.41;5050836;28;25007;-80
2022/01/10 09:30:50;;;;;;;16.52;14.52;;;;;;;0.82;100.00;95975.94;5051564;28;24864;-79
2022/01/10 09:33:16;;;;;;;15.80;13.05;;;;;;;0.88;100.00;95977.50;5052503;28;24407;-80
2022/01/10 09:35:43;;;;;;;15.55;12.15;;;;;;;0.91;100.00;95969.81;5059600;28;24475;-79
2022/01/10 09:38:10;;;;;;;14.15;11.82;;;;;;;0.86;100.00;95989.47;5057085;28;24419;-81
2022/01/10 09:40:37;;;;;;;15.95;11.98;;;;;;;0.88;100.00;95987.72;5054986;28;24426;-82
2022/01/10 09:43:04;;;;;;;14.00;11.32;;;;;;;1.02;100.00;95982.31;5054352;28;24438;-79
2022/01/10 09:45:34;;;;;;;15.60;10.88;;;;;;;1.00;100.00;95990.00;5057131;28;24427;-80
2022/01/10 09:48:00;;;;;;;17.30;10.07;;;;;;;1.01;100.00;95996.78;5054678;28;24547;-79
2022/01/10 09:50:27;;;;;;;10.68;8.52;;;;;;;1.05;100.00;95993.28;5055376;28;24812;-79
2022/01/10 09:52:54;;;;;;;12.43;8.20;;;;;;;1.29;100.00;95994.44;5055944;28;24434;-78
2022/01/10 09:55:20;;;;;;;11.82;9.00;;;;;;;1.11;100.00;96005.94;5056433;28;24427;-80
2022/01/10 09:57:47;;;;;;;9.93;8.35;;;;;;;1.23;100.00;96007.38;5055818;28;24427;-79
2022/01/10 10:00:15;;;;;;;14.63;8.87;;;;;;;1.25;100.00;96015.81;5055922;28;24439;-79
2022/01/10 10:02:43;;;;;;;12.40;7.40;;;;;;;1.26;100.00;96014.94;5055355;28;24419;-78
2022/01/10 10:05:12;;;;;;;8.70;7.00;;;;;;;1.31;100.00;96015.69;5056623;28;24514;-78
2022/01/10 10:07:39;;;;;;;11.48;6.65;;;;;;;1.24;100.00;96019.25;5054427;28;24471;-79
2022/01/10 10:10:11;;;;;;;8.75;5.65;;;;;;;1.25;100.00;96020.06;5054929;28;24970;-79
2022/01/10 10:12:40;;;;;;;8.88;5.45;;;;;;;1.43;100.00;96022.22;5054998;28;24976;-79
2022/01/10 10:15:08;;;;;;;8.23;5.32;;;;;;;1.47;100.00;96026.38;5057690;28;24462;-80
2022/01/10 10:17:35;;;;;;;12.30;4.78;;;;;;;1.54;100.00;96032.19;5054013;28;24435;-81
2022/01/10 10:20:07;;;;;;;12.83;4.93;;;;;;;1.44;100.00;96034.09;5054812;28;24978;-80
2022/01/10 10:22:33;;;;;;;13.35;4.60;;;;;;;1.33;100.00;96031.78;5053949;28;24420;-78
2022/01/10 10:25:17;;;;;;;9.35;4.55;;;;;;;1.31;100.00;96040.34;5062424;28;24411;-85
2022/01/10 10:27:46;;;;;;;8.52;4.32;;;;;;;1.65;100.00;96041.25;5064941;28;24463;-79
2022/01/10 10:30:16;;;;;;;11.50;4.95;;;;;;;1.72;100.00;96038.56;5062376;28;24427;-78
2022/01/10 10:32:42;;;;;;;10.75;4.97;;;;;;;1.69;100.00;96047.97;5063166;28;24430;-79
2022/01/10 10:35:12;;;;;;;9.43;4.72;;;;;;;1.20;100.00;96049.09;5080746;28;24472;-80
2022/01/10 10:37:40;;;;;;;10.30;4.68;;;;;;;1.22;100.00;96056.69;5085966;28;24469;-79
2022/01/10 10:40:10;;;;;;;9.88;4.85;;;;;;;1.37;100.00;96056.38;5072003;28;24538;-81
2022/01/10 10:42:39;;;;;;;9.20;4.68;;;;;;;1.61;100.00;96060.06;5065061;28;24971;-80
2022/01/10 10:45:07;;;;;;;10.82;4.35;;;;;;;1.27;100.00;96062.56;5068662;28;24511;-80
2022/01/10 10:47:34;;;;;;;8.50;4.60;;;;;;;1.17;100.00;96061.06;5065096;28;24498;-81
2022/01/10 10:52:44;;;;;;;10.55;4.85;;;;;;;1.35;100.00;96070.03;5064616;28;24437;-80
2022/01/10 10:55:13;;;;;;;10.82;5.68;;;;;;;1.41;100.00;96072.47;5079737;28;24441;-79
2022/01/10 10:57:41;;;;;;;13.13;5.65;;;;;;;1.48;100.00;96080.81;5080994;28;24446;-81
2022/01/10 11:00:10;;;;;;;10.50;5.35;;;;;;;1.33;100.00;96085.34;5064973;28;24423;-80
2022/01/10 11:02:37;;;;;;;10.80;5.63;;;;;;;1.36;100.00;96085.31;5061938;28;24523;-79
2022/01/10 11:05:05;;;;;;;9.30;5.03;;;;;;;1.47;100.00;96091.91;5077937;28;24480;-80
2022/01/10 11:07:34;;;;;;;10.77;4.85;;;;;;;1.70;100.00;96093.03;5075434;28;24459;-81
2022/01/10 11:10:03;;;;;;;16.02;6.03;;;;;;;1.61;100.00;96100.09;5054725;28;24485;-81
2022/01/10 11:12:32;;;;;;;13.23;5.75;;;;;;;1.61;100.00;96097.53;5054519;28;24428;-80
2022/01/10 11:15:00;;;;;;;14.65;6.10;;;;;;;1.84;100.00;96097.84;5055237;28;24466;-80
2022/01/10 11:17:27;;;;;;;12.07;6.07;;;;;;;1.70;100.00;96098.16;5054440;28;24514;-81
2022/01/10 11:20:12;;;;;;;12.27;5.95;;;;;;;1.73;100.00;96106.63;5054963;28;24415;-80
2022/01/10 11:22:40;;;;;;;14.60;6.67;;;;;;;1.60;100.00;96108.63;5051017;28;24442;-79
2022/01/10 11:25:25;;;;;;;15.63;6.68;;;;;;;1.98;100.00;96117.97;5056100;28;24427;-80
2022/01/10 11:27:53;;;;;;;13.73;6.90;;;;;;;1.98;100.00;96117.97;5061485;28;24546;-80
2022/01/10 11:30:34;;;;;;;15.30;6.78;;;;;;;1.96;100.00;96121.41;5064418;28;24435;-79
2022/01/10 11:33:05;;;;;;;12.10;6.63;;;;;;;1.87;100.00;96120.75;5055460;28;24490;-81